sensor_id;sensor_type;location;lat;lon;timestamp;pressure;altitude;pressure_sealevel;temperature;humidity
54369;BME280;40266;52.434;17.056;2023-05-23T00:00:04;100501.79;;;10.11;77.17
54369;BME280;40266;52.434;17.056;2023-05-23T00:03:13;100499.77;;;10.07;77.30
54369;BME280;40266;52.434;17.056;2023-05-23T00:05:58;100495.82;;;10.03;77.41
54369;BME280;40266;52.434;17.056;2023-05-23T00:08:41;100492.55;;;10.00;77.53
54369;BME280;40266;52.434;17.056;2023-05-23T00:11:24;100492.09;;;9.97;77.70
54369;BME280;40266;52.434;17.056;2023-05-23T00:14:08;100492.14;;;9.94;77.82
54369;BME280;40266;52.434;17.056;2023-05-23T00:16:51;100493.94;;;9.91;77.95
54369;BME280;40266;52.434;17.056;2023-05-23T00:19:34;100492.77;;;9.87;78.02
54369;BME280;40266;52.434;17.056;2023-05-23T00:22:18;100490.58;;;9.84;78.22
54369;BME280;40266;52.434;17.056;2023-05-23T00:25:01;100489.57;;;9.81;78.22
54369;BME280;40266;52.434;17.056;2023-05-23T00:27:44;100490.52;;;9.78;78.32
54369;BME280;40266;52.434;17.056;2023-05-23T00:30:29;100486.02;;;9.75;78.65
54369;BME280;40266;52.434;17.056;2023-05-23T00:33:12;100486.41;;;9.72;78.77
54369;BME280;40266;52.434;17.056;2023-05-23T00:35:56;100481.23;;;9.69;78.83
54369;BME280;40266;52.434;17.056;2023-05-23T00:38:39;100479.70;;;9.67;78.98
54369;BME280;40266;52.434;17.056;2023-05-23T00:41:22;100477.83;;;9.64;78.98
54369;BME280;40266;52.434;17.056;2023-05-23T00:44:08;100474.91;;;9.61;79.18
54369;BME280;40266;52.434;17.056;2023-05-23T00:46:55;100474.96;;;9.59;79.26
54369;BME280;40266;52.434;17.056;2023-05-23T00:49:39;100475.34;;;9.56;79.35
54369;BME280;40266;52.434;17.056;2023-05-23T00:52:22;100479.20;;;9.55;79.30
54369;BME280;40266;52.434;17.056;2023-05-23T00:55:06;100479.07;;;9.53;79.28
54369;BME280;40266;52.434;17.056;2023-05-23T00:57:52;100476.48;;;9.51;79.63
54369;BME280;40266;52.434;17.056;2023-05-23T01:00:37;100474.59;;;9.49;79.81
54369;BME280;40266;52.434;17.056;2023-05-23T01:03:38;100471.31;;;9.47;80.13
54369;BME280;40266;52.434;17.056;2023-05-23T01:06:23;100474.66;;;9.45;80.00
54369;BME280;40266;52.434;17.056;2023-05-23T01:09:08;100467.36;;;9.43;80.23
54369;BME280;40266;52.434;17.056;2023-05-23T01:14:58;100470.39;;;9.40;80.34
54369;BME280;40266;52.434;17.056;2023-05-23T01:18:01;100473.54;;;9.38;80.48
54369;BME280;40266;52.434;17.056;2023-05-23T01:20:56;100473.73;;;9.37;80.74
54369;BME280;40266;52.434;17.056;2023-05-23T01:30:08;100466.55;;;9.28;80.98
54369;BME280;40266;52.434;17.056;2023-05-23T01:32:53;100464.48;;;9.26;80.99
54369;BME280;40266;52.434;17.056;2023-05-23T01:35:37;100467.14;;;9.24;81.11
54369;BME280;40266;52.434;17.056;2023-05-23T01:38:22;100460.20;;;9.21;81.28
54369;BME280;40266;52.434;17.056;2023-05-23T01:41:06;100463.21;;;9.18;81.27
54369;BME280;40266;52.434;17.056;2023-05-23T01:43:49;100461.70;;;9.16;81.31
54369;BME280;40266;52.434;17.056;2023-05-23T01:46:33;100456.86;;;9.13;81.33
54369;BME280;40266;52.434;17.056;2023-05-23T01:49:18;100457.59;;;9.10;81.55
54369;BME280;40266;52.434;17.056;2023-05-23T01:52:05;100455.38;;;9.06;81.65
54369;BME280;40266;52.434;17.056;2023-05-23T01:54:53;100448.30;;;9.03;81.72
54369;BME280;40266;52.434;17.056;2023-05-23T01:57:39;100445.35;;;9.01;81.82
54369;BME280;40266;52.434;17.056;2023-05-23T02:00:22;100446.79;;;8.98;81.94
54369;BME280;40266;52.434;17.056;2023-05-23T02:03:07;100441.96;;;8.95;81.90
54369;BME280;40266;52.434;17.056;2023-05-23T02:05:50;100442.52;;;8.93;82.07
54369;BME280;40266;52.434;17.056;2023-05-23T02:08:33;100433.33;;;8.89;82.13
54369;BME280;40266;52.434;17.056;2023-05-23T02:11:18;100435.29;;;8.87;82.12
54369;BME280;40266;52.434;17.056;2023-05-23T02:14:01;100429.92;;;8.84;82.41
54369;BME280;40266;52.434;17.056;2023-05-23T02:16:45;100428.04;;;8.82;82.41
54369;BME280;40266;52.434;17.056;2023-05-23T02:19:29;100426.15;;;8.80;82.55
54369;BME280;40266;52.434;17.056;2023-05-23T02:22:13;100428.44;;;8.78;82.57
54369;BME280;40266;52.434;17.056;2023-05-23T02:24:56;100425.67;;;8.77;82.65
54369;BME280;40266;52.434;17.056;2023-05-23T02:27:39;100421.70;;;8.74;82.58
54369;BME280;40266;52.434;17.056;2023-05-23T02:30:22;100419.64;;;8.73;82.81
54369;BME280;40266;52.434;17.056;2023-05-23T02:33:06;100418.27;;;8.72;82.86
54369;BME280;40266;52.434;17.056;2023-05-23T02:35:50;100417.21;;;8.72;82.99
54369;BME280;40266;52.434;17.056;2023-05-23T02:38:33;100418.44;;;8.71;83.07
54369;BME280;40266;52.434;17.056;2023-05-23T02:41:16;100416.19;;;8.70;82.98
54369;BME280;40266;52.434;17.056;2023-05-23T02:44:02;100418.97;;;8.70;83.20
54369;BME280;40266;52.434;17.056;2023-05-23T02:46:46;100410.11;;;8.70;83.31
54369;BME280;40266;52.434;17.056;2023-05-23T02:49:29;100404.91;;;8.68;83.38
54369;BME280;40266;52.434;17.056;2023-05-23T02:52:14;100402.14;;;8.66;83.45
54369;BME280;40266;52.434;17.056;2023-05-23T02:54:58;100400.75;;;8.66;83.61
54369;BME280;40266;52.434;17.056;2023-05-23T02:57:41;100400.75;;;8.66;83.55
54369;BME280;40266;52.434;17.056;2023-05-23T03:00:26;100399.37;;;8.66;83.68
54369;BME280;40266;52.434;17.056;2023-05-23T03:03:11;100395.86;;;8.68;83.83
54369;BME280;40266;52.434;17.056;2023-05-23T03:05:54;100395.83;;;8.70;83.95
54369;BME280;40266;52.434;17.056;2023-05-23T03:08:38;100393.00;;;8.72;83.96
54369;BME280;40266;52.434;17.056;2023-05-23T03:11:21;100395.59;;;8.74;84.11
54369;BME280;40266;52.434;17.056;2023-05-23T03:14:05;100399.19;;;8.78;84.19
54369;BME280;40266;52.434;17.056;2023-05-23T03:16:49;100398.44;;;8.82;84.35
54369;BME280;40266;52.434;17.056;2023-05-23T03:19:32;100400.27;;;8.87;84.34
54369;BME280;40266;52.434;17.056;2023-05-23T03:22:18;100401.07;;;8.93;84.48
54369;BME280;40266;52.434;17.056;2023-05-23T03:25:02;100401.34;;;8.97;84.61
54369;BME280;40266;52.434;17.056;2023-05-23T03:27:46;100402.82;;;9.03;84.79
54369;BME280;40266;52.434;17.056;2023-05-23T03:30:29;100398.18;;;9.10;84.81
54369;BME280;40266;52.434;17.056;2023-05-23T03:33:13;100391.63;;;9.17;84.93
54369;BME280;40266;52.434;17.056;2023-05-23T03:35:56;100392.05;;;9.23;84.96
54369;BME280;40266;52.434;17.056;2023-05-23T03:38:40;100395.78;;;9.29;85.03
54369;BME280;40266;52.434;17.056;2023-05-23T03:41:24;100394.97;;;9.36;85.07
54369;BME280;40266;52.434;17.056;2023-05-23T03:44:09;100392.59;;;9.43;84.94
54369;BME280;40266;52.434;17.056;2023-05-23T03:46:53;100389.01;;;9.49;85.22
54369;BME280;40266;52.434;17.056;2023-05-23T03:49:36;100387.68;;;9.55;85.08
54369;BME280;40266;52.434;17.056;2023-05-23T03:52:21;100388.95;;;9.61;85.04
54369;BME280;40266;52.434;17.056;2023-05-23T03:55:05;100387.52;;;9.64;85.09
54369;BME280;40266;52.434;17.056;2023-05-23T03:57:51;100394.32;;;9.74;85.08
54369;BME280;40266;52.434;17.056;2023-05-23T04:00:35;100390.71;;;9.80;85.18
54369;BME280;40266;52.434;17.056;2023-05-23T04:03:22;100390.91;;;9.87;85.23
54369;BME280;40266;52.434;17.056;2023-05-23T04:06:06;100385.91;;;9.94;85.21
54369;BME280;40266;52.434;17.056;2023-05-23T04:08:52;100387.14;;;10.02;85.17
54369;BME280;40266;52.434;17.056;2023-05-23T04:11:36;100388.90;;;10.10;85.11
54369;BME280;40266;52.434;17.056;2023-05-23T04:14:20;100388.73;;;10.19;85.22
54369;BME280;40266;52.434;17.056;2023-05-23T04:17:05;100388.91;;;10.28;85.32
54369;BME280;40266;52.434;17.056;2023-05-23T04:19:51;100392.69;;;10.40;85.18
54369;BME280;40266;52.434;17.056;2023-05-23T04:22:34;100388.55;;;10.53;85.37
54369;BME280;40266;52.434;17.056;2023-05-23T04:25:19;100379.53;;;10.67;85.28
54369;BME280;40266;52.434;17.056;2023-05-23T04:28:29;100378.21;;;10.86;85.34
54369;BME280;40266;52.434;17.056;2023-05-23T04:31:12;100374.46;;;11.19;85.21
54369;BME280;40266;52.434;17.056;2023-05-23T04:33:57;100374.44;;;11.54;84.93
54369;BME280;40266;52.434;17.056;2023-05-23T04:36:41;100374.34;;;11.78;84.94
54369;BME280;40266;52.434;17.056;2023-05-23T04:39:28;100369.27;;;11.91;84.78
54369;BME280;40266;52.434;17.056;2023-05-23T04:42:31;100367.45;;;12.07;84.43
54369;BME280;40266;52.434;17.056;2023-05-23T04:45:28;100358.96;;;12.22;83.86
54369;BME280;40266;52.434;17.056;2023-05-23T04:48:18;100355.86;;;12.38;83.45
54369;BME280;40266;52.434;17.056;2023-05-23T04:51:04;100355.55;;;12.54;83.06
54369;BME280;40266;52.434;17.056;2023-05-23T04:53:55;100353.61;;;12.71;82.32
54369;BME280;40266;52.434;17.056;2023-05-23T04:56:39;100347.63;;;12.89;82.23
54369;BME280;40266;52.434;17.056;2023-05-23T04:59:24;100345.90;;;13.10;81.86
54369;BME280;40266;52.434;17.056;2023-05-23T05:02:09;100348.50;;;13.32;81.59
54369;BME280;40266;52.434;17.056;2023-05-23T05:04:54;100352.98;;;13.60;81.01
54369;BME280;40266;52.434;17.056;2023-05-23T05:07:37;100348.88;;;13.92;80.33
54369;BME280;40266;52.434;17.056;2023-05-23T05:10:23;100348.17;;;14.30;79.56
54369;BME280;40266;52.434;17.056;2023-05-23T05:13:06;100344.63;;;14.72;78.80
54369;BME280;40266;52.434;17.056;2023-05-23T05:15:57;100339.59;;;15.59;77.02
54369;BME280;40266;52.434;17.056;2023-05-23T05:18:42;100335.10;;;16.55;75.56
54369;BME280;40266;52.434;17.056;2023-05-23T05:21:26;100333.73;;;17.27;74.09
54369;BME280;40266;52.434;17.056;2023-05-23T05:24:11;100330.61;;;17.88;72.41
54369;BME280;40266;52.434;17.056;2023-05-23T05:26:54;100333.28;;;18.07;71.17
54369;BME280;40266;52.434;17.056;2023-05-23T05:29:39;100329.36;;;17.95;70.60
54369;BME280;40266;52.434;17.056;2023-05-23T05:32:24;100329.39;;;17.94;70.61
54369;BME280;40266;52.434;17.056;2023-05-23T05:35:07;100323.52;;;17.88;69.37
54369;BME280;40266;52.434;17.056;2023-05-23T05:37:51;100321.35;;;17.86;69.52
54369;BME280;40266;52.434;17.056;2023-05-23T05:40:35;100321.02;;;17.92;69.76
54369;BME280;40266;52.434;17.056;2023-05-23T05:43:18;100321.62;;;17.98;69.03
54369;BME280;40266;52.434;17.056;2023-05-23T05:46:02;100323.59;;;17.93;67.12
54369;BME280;40266;52.434;17.056;2023-05-23T05:48:46;100322.69;;;17.87;66.29
54369;BME280;40266;52.434;17.056;2023-05-23T05:51:32;100326.95;;;17.83;65.11
54369;BME280;40266;52.434;17.056;2023-05-23T05:54:15;100323.92;;;17.84;64.48
54369;BME280;40266;52.434;17.056;2023-05-23T05:57:01;100320.98;;;17.96;64.38
54369;BME280;40266;52.434;17.056;2023-05-23T05:59:44;100320.99;;;18.32;63.89
54369;BME280;40266;52.434;17.056;2023-05-23T06:02:28;100326.25;;;18.99;63.08
54369;BME280;40266;52.434;17.056;2023-05-23T06:05:15;100321.63;;;19.68;61.03
54369;BME280;40266;52.434;17.056;2023-05-23T06:08:04;100320.18;;;20.04;59.35
54369;BME280;40266;52.434;17.056;2023-05-23T06:10:51;100319.96;;;20.01;58.82
54369;BME280;40266;52.434;17.056;2023-05-23T06:13:34;100320.79;;;19.88;58.01
54369;BME280;40266;52.434;17.056;2023-05-23T06:16:21;100315.55;;;19.75;57.66
54369;BME280;40266;52.434;17.056;2023-05-23T06:19:05;100315.70;;;19.63;56.86
54369;BME280;40266;52.434;17.056;2023-05-23T06:21:50;100307.93;;;19.48;57.15
54369;BME280;40266;52.434;17.056;2023-05-23T06:24:37;100309.83;;;19.46;57.79
54369;BME280;40266;52.434;17.056;2023-05-23T06:27:20;100308.10;;;19.46;58.04
54369;BME280;40266;52.434;17.056;2023-05-23T06:30:04;100300.98;;;19.37;57.25
54369;BME280;40266;52.434;17.056;2023-05-23T06:32:47;100297.11;;;19.22;57.12
54369;BME280;40266;52.434;17.056;2023-05-23T06:35:30;100295.09;;;19.11;57.48
54369;BME280;40266;52.434;17.056;2023-05-23T06:38:16;100294.27;;;19.04;58.09
54369;BME280;40266;52.434;17.056;2023-05-23T06:41:00;100291.09;;;18.98;57.95
54369;BME280;40266;52.434;17.056;2023-05-23T06:43:45;100292.72;;;18.91;57.45
54369;BME280;40266;52.434;17.056;2023-05-23T06:46:30;100287.52;;;18.83;57.47
54369;BME280;40266;52.434;17.056;2023-05-23T06:49:14;100282.95;;;18.86;58.35
54369;BME280;40266;52.434;17.056;2023-05-23T06:51:59;100283.06;;;18.87;57.79
54369;BME280;40266;52.434;17.056;2023-05-23T06:54:43;100280.21;;;18.87;57.89
54369;BME280;40266;52.434;17.056;2023-05-23T06:57:27;100284.48;;;18.93;58.32
54369;BME280;40266;52.434;17.056;2023-05-23T07:00:11;100283.13;;;19.04;58.30
54369;BME280;40266;52.434;17.056;2023-05-23T07:03:05;100287.86;;;19.16;57.57
54369;BME280;40266;52.434;17.056;2023-05-23T07:05:50;100286.61;;;19.29;57.14
54369;BME280;40266;52.434;17.056;2023-05-23T07:08:34;100286.89;;;19.42;56.72
54369;BME280;40266;52.434;17.056;2023-05-23T07:11:20;100284.64;;;19.58;56.58
54369;BME280;40266;52.434;17.056;2023-05-23T07:14:10;100284.04;;;19.81;56.39
54369;BME280;40266;52.434;17.056;2023-05-23T07:16:56;100288.29;;;19.92;56.10
54369;BME280;40266;52.434;17.056;2023-05-23T07:19:39;100283.56;;;20.05;56.36
54369;BME280;40266;52.434;17.056;2023-05-23T07:22:22;100280.83;;;20.20;56.04
54369;BME280;40266;52.434;17.056;2023-05-23T07:25:07;100283.25;;;20.35;55.40
54369;BME280;40266;52.434;17.056;2023-05-23T07:27:51;100284.04;;;20.48;53.69
54369;BME280;40266;52.434;17.056;2023-05-23T07:30:40;100285.48;;;20.56;53.87
54369;BME280;40266;52.434;17.056;2023-05-23T07:33:24;100287.80;;;20.61;53.33
54369;BME280;40266;52.434;17.056;2023-05-23T07:36:11;100285.23;;;20.71;53.56
54369;BME280;40266;52.434;17.056;2023-05-23T07:38:55;100282.75;;;20.84;53.70
54369;BME280;40266;52.434;17.056;2023-05-23T08:06:01;100277.54;;;21.74;51.08
54369;BME280;40266;52.434;17.056;2023-05-23T08:09:25;100274.27;;;21.85;50.71
54369;BME280;40266;52.434;17.056;2023-05-23T08:33:09;100262.52;;;24.36;46.41
54369;BME280;40266;52.434;17.056;2023-05-23T09:37:18;100246.11;;;24.19;36.16
54369;BME280;40266;52.434;17.056;2023-05-23T15:22:24;100224.84;;;17.67;81.33
54369;BME280;40266;52.434;17.056;2023-05-23T17:51:30;100198.46;;;16.98;84.73
54369;BME280;40266;52.434;17.056;2023-05-23T19:31:56;100267.94;;;15.84;90.84
54369;BME280;40266;52.434;17.056;2023-05-23T22:38:03;100352.21;;;14.20;95.34
54369;BME280;40266;52.434;17.056;2023-05-23T23:37:24;100353.30;;;14.10;97.57
54369;BME280;40266;52.434;17.056;2023-05-23T23:57:36;100352.54;;;14.21;97.86
